Time;durP1;ratioP1;P1;durP2;ratioP2;P2;SDS_P1;SDS_P2;PMS_P1;PMS_P2;Temp;Humidity;BMP_temperature;BMP_pressure;BME280_temperature;BME280_humidity;BME280_pressure;Samples;Min_cycle;Max_cycle;Signal;HPM_P1;HPM_P2
2022/12/30 00:01:09;;;;;;;7.13;6.17;;;7.30;99.90;;;;;;5052040;28;20277;-65
2022/12/30 00:03:35;;;;;;;6.73;6.33;;;7.20;99.90;;;;;;5054104;28;20278;-65
2022/12/30 00:06:03;;;;;;;8.33;5.93;;;7.30;99.90;;;;;;5052846;28;20186;-65
2022/12/30 00:08:47;;;;;;;7.83;6.07;;;7.30;99.90;;;;;;5066542;28;20190;-66
2022/12/30 00:11:33;;;;;;;12.30;7.20;;;7.30;99.90;;;;;;5071582;28;20247;-65
2022/12/30 00:34:10;;;;;;;7.30;6.60;;;7.20;99.90;;;;;;5071876;28;20722;-66
2022/12/30 00:36:37;;;;;;;7.27;6.60;;;7.20;99.90;;;;;;5055801;28;20200;-66
2022/12/30 00:39:03;;;;;;;10.47;7.07;;;7.20;99.90;;;;;;5051645;28;20175;-65
2022/12/30 00:44:13;;;;;;;9.30;6.53;;;7.20;99.90;;;;;;5071925;28;20173;-65
2022/12/30 00:46:41;;;;;;;9.40;6.60;;;7.20;99.90;;;;;;5056281;28;20175;-66
2022/12/30 00:57:18;;;;;;;7.37;6.20;;;7.10;99.90;;;;;;5051988;28;20218;-66
2022/12/30 00:59:44;;;;;;;6.87;6.10;;;7.10;99.90;;;;;;5051063;28;20221;-65
2022/12/30 01:02:10;;;;;;;6.23;5.73;;;7.00;99.90;;;;;;5052716;28;20551;-65
2022/12/30 01:04:35;;;;;;;6.77;5.93;;;6.90;99.90;;;;;;5051162;28;20257;-65
2022/12/30 01:07:01;;;;;;;13.10;5.63;;;6.90;99.90;;;;;;5066774;28;20182;-66
2022/12/30 01:09:26;;;;;;;12.23;6.70;;;6.90;99.90;;;;;;5070986;28;20175;-66
2022/12/30 01:12:10;;;;;;;12.00;5.73;;;6.90;99.90;;;;;;5057344;28;20292;-65
2022/12/30 01:14:43;;;;;;;6.63;5.47;;;6.80;99.90;;;;;;5051401;28;20542;-65
2022/12/30 01:17:12;;;;;;;11.63;5.57;;;6.70;99.90;;;;;;5065918;28;20315;-65
2022/12/30 01:19:38;;;;;;;6.53;6.03;;;6.70;99.90;;;;;;5070900;28;20182;-66
2022/12/30 01:22:05;;;;;;;11.37;6.37;;;6.60;99.90;;;;;;5056666;28;20190;-66
2022/12/30 01:24:30;;;;;;;10.37;6.00;;;6.50;99.90;;;;;;5051618;28;20190;-66
2022/12/30 01:26:56;;;;;;;5.53;5.20;;;6.40;99.90;;;;;;5063846;28;20225;-65
2022/12/30 01:29:30;;;;;;;6.10;5.80;;;6.40;99.90;;;;;;5062633;28;20187;-65
2022/12/30 01:31:58;;;;;;;6.60;6.20;;;6.30;99.90;;;;;;5051154;28;20194;-66
2022/12/30 01:34:25;;;;;;;6.03;5.50;;;6.20;99.90;;;;;;5058873;28;20183;-65
2022/12/30 01:36:51;;;;;;;6.60;5.70;;;6.10;99.90;;;;;;5071056;28;20651;-66
2022/12/30 01:39:17;;;;;;;7.07;6.67;;;6.10;99.90;;;;;;5063368;28;20186;-66
2022/12/30 01:41:43;;;;;;;6.40;5.80;;;6.00;99.90;;;;;;5070878;28;20227;-66
2022/12/30 01:44:46;;;;;;;5.83;5.37;;;6.00;99.90;;;;;;5065919;28;20644;-66
2022/12/30 01:47:20;;;;;;;5.63;5.33;;;6.00;99.90;;;;;;5064891;28;20226;-66
2022/12/30 01:49:48;;;;;;;11.37;5.80;;;5.90;99.90;;;;;;5069833;28;20194;-66
2022/12/30 01:52:17;;;;;;;6.87;6.00;;;5.90;99.90;;;;;;5070673;28;20198;-66
2022/12/30 01:54:43;;;;;;;5.63;5.23;;;5.80;99.90;;;;;;5063675;28;20171;-67
2022/12/30 01:57:09;;;;;;;5.73;5.30;;;5.80;99.90;;;;;;5051118;28;20213;-66
2022/12/30 01:59:37;;;;;;;7.00;5.73;;;5.70;99.90;;;;;;5053263;28;20179;-66
2022/12/30 02:02:03;;;;;;;13.43;5.80;;;5.80;99.90;;;;;;5054492;28;20162;-66
2022/12/30 02:04:29;;;;;;;5.47;5.10;;;5.80;99.90;;;;;;5058620;28;20255;-66
2022/12/30 02:07:33;;;;;;;6.23;5.23;;;5.70;99.90;;;;;;5074411;28;20583;-65
2022/12/30 02:10:00;;;;;;;8.67;5.57;;;5.70;99.90;;;;;;5065497;28;20211;-65
2022/12/30 02:12:25;;;;;;;7.07;6.47;;;5.80;99.90;;;;;;5054172;28;20628;-66
2022/12/30 02:14:55;;;;;;;6.10;5.70;;;5.80;99.90;;;;;;5054457;28;20206;-66
2022/12/30 02:17:26;;;;;;;9.10;6.17;;;5.80;99.90;;;;;;5064530;28;20433;-66
2022/12/30 02:20:23;;;;;;;6.23;5.87;;;5.80;99.90;;;;;;5067969;28;20556;-66
2022/12/30 02:23:04;;;;;;;6.23;5.67;;;5.80;99.90;;;;;;5060331;28;20708;-66
2022/12/30 02:25:51;;;;;;;17.67;6.30;;;5.80;99.90;;;;;;5061646;28;20174;-66
2022/12/30 02:28:47;;;;;;;8.63;5.87;;;5.80;99.90;;;;;;5057674;28;20333;-67
2022/12/30 02:31:23;;;;;;;6.93;6.03;;;5.70;99.90;;;;;;5073477;28;20206;-66
2022/12/30 02:34:12;;;;;;;9.13;6.37;;;5.70;99.90;;;;;;5064268;28;20175;-67
2022/12/30 02:37:02;;;;;;;5.73;5.33;;;5.60;99.90;;;;;;5053635;28;20159;-66
2022/12/30 02:39:50;;;;;;;7.70;6.17;;;5.60;99.90;;;;;;5058369;28;20261;-67
2022/12/30 02:45:17;;;;;;;7.00;5.70;;;5.30;99.90;;;;;;5068802;28;20316;-66
2022/12/30 02:47:52;;;;;;;6.23;5.57;;;5.20;99.90;;;;;;5065844;28;20184;-67
2022/12/30 02:53:12;;;;;;;6.13;5.67;;;5.00;99.90;;;;;;5069351;28;20201;-65
2022/12/30 02:55:38;;;;;;;5.87;5.37;;;4.90;99.90;;;;;;5068381;28;20175;-65
2022/12/30 02:58:04;;;;;;;8.70;6.73;;;4.80;99.90;;;;;;5072691;28;20185;-65
2022/12/30 03:04:06;;;;;;;7.23;6.20;;;4.70;99.90;;;;;;5059924;28;20273;-66
2022/12/30 03:06:52;;;;;;;6.00;5.70;;;4.60;99.90;;;;;;5065183;28;20372;-65
2022/12/30 03:09:39;;;;;;;6.37;5.70;;;4.60;99.90;;;;;;5064611;28;20202;-65
2022/12/30 03:12:24;;;;;;;6.67;5.97;;;4.50;99.90;;;;;;5065212;28;20576;-65
2022/12/30 03:15:08;;;;;;;6.27;5.97;;;4.40;99.90;;;;;;5072621;28;20292;-65
2022/12/30 03:17:37;;;;;;;6.30;6.00;;;4.40;99.90;;;;;;5067760;28;20265;-65
2022/12/30 03:20:08;;;;;;;8.63;7.90;;;4.30;99.90;;;;;;5071609;28;20209;-65
2022/12/30 03:28:09;;;;;;;7.87;7.50;;;4.10;99.90;;;;;;5072764;28;20201;-66
2022/12/30 03:30:42;;;;;;;11.10;7.13;;;4.10;99.90;;;;;;5066038;28;20198;-65
2022/12/30 03:33:09;;;;;;;7.23;6.70;;;4.10;99.90;;;;;;5072016;28;20209;-65
2022/12/30 03:35:39;;;;;;;8.63;7.00;;;4.10;99.90;;;;;;5062622;28;20233;-65
2022/12/30 03:38:09;;;;;;;9.13;6.90;;;4.10;99.90;;;;;;5071854;28;20247;-65
2022/12/30 03:40:41;;;;;;;9.17;8.33;;;4.10;99.90;;;;;;5066323;28;20198;-65
2022/12/30 03:43:08;;;;;;;7.93;7.23;;;4.10;99.90;;;;;;5068198;28;20654;-65
2022/12/30 03:45:33;;;;;;;8.27;7.47;;;4.10;99.90;;;;;;5072579;28;20577;-65
2022/12/30 03:47:59;;;;;;;10.23;7.60;;;4.10;99.90;;;;;;5068646;28;20173;-66
2022/12/30 03:50:25;;;;;;;13.53;7.50;;;4.10;99.90;;;;;;5065272;28;20206;-65
2022/12/30 03:52:50;;;;;;;6.57;6.03;;;4.10;99.90;;;;;;5069766;28;20202;-65
2022/12/30 03:55:16;;;;;;;9.47;7.63;;;4.10;99.90;;;;;;5071437;28;20220;-65
2022/12/30 03:57:42;;;;;;;6.93;6.53;;;4.10;99.90;;;;;;5070131;28;20178;-65
2022/12/30 04:00:08;;;;;;;8.40;7.60;;;4.20;99.90;;;;;;5070976;28;20202;-66
2022/12/30 04:02:35;;;;;;;8.27;6.37;;;4.20;99.90;;;;;;5064093;28;20179;-65
2022/12/30 04:05:00;;;;;;;6.80;6.50;;;4.30;99.90;;;;;;5071317;28;20209;-65
2022/12/30 04:07:26;;;;;;;7.30;6.80;;;4.30;99.90;;;;;;5065100;28;20599;-65
2022/12/30 04:09:52;;;;;;;12.83;6.70;;;4.40;99.90;;;;;;5066686;28;20746;-65
2022/12/30 04:12:17;;;;;;;7.63;7.03;;;4.40;99.90;;;;;;5067134;28;20210;-67
2022/12/30 04:14:43;;;;;;;10.00;7.50;;;4.40;99.90;;;;;;5071317;28;20182;-67
2022/12/30 04:17:09;;;;;;;6.87;6.50;;;4.40;99.90;;;;;;5070784;28;20181;-65
2022/12/30 04:19:34;;;;;;;6.33;6.03;;;4.40;99.90;;;;;;5071027;28;20685;-65
2022/12/30 04:22:00;;;;;;;8.00;6.73;;;4.50;99.90;;;;;;5064617;28;20194;-65
2022/12/30 04:24:25;;;;;;;5.70;5.50;;;4.40;99.90;;;;;;5070691;28;20220;-65
2022/12/30 04:26:51;;;;;;;7.73;7.23;;;4.40;99.90;;;;;;5065770;28;20182;-65
2022/12/30 04:29:17;;;;;;;7.23;6.13;;;4.50;99.90;;;;;;5069036;28;20189;-65
2022/12/30 04:31:42;;;;;;;10.67;6.83;;;4.50;99.90;;;;;;5070152;28;20202;-66
2022/12/30 04:34:08;;;;;;;11.27;7.17;;;4.40;99.90;;;;;;5070997;28;20175;-65
2022/12/30 04:36:34;;;;;;;7.93;6.70;;;4.40;99.90;;;;;;5070313;28;20177;-66
2022/12/30 04:39:00;;;;;;;7.50;6.70;;;4.40;99.90;;;;;;5068754;28;20193;-66
2022/12/30 04:41:25;;;;;;;7.90;7.17;;;4.40;99.90;;;;;;5069879;28;20281;-66
2022/12/30 04:43:51;;;;;;;10.07;7.17;;;4.40;99.90;;;;;;5068686;28;20226;-66
2022/12/30 04:46:17;;;;;;;7.53;7.20;;;4.40;99.90;;;;;;5070803;28;20173;-66
2022/12/30 04:48:42;;;;;;;7.77;6.73;;;4.40;99.90;;;;;;5066985;28;20209;-66
2022/12/30 04:51:08;;;;;;;8.47;7.77;;;4.40;99.90;;;;;;5069607;28;20301;-67
2022/12/30 04:53:33;;;;;;;6.77;6.47;;;4.30;99.90;;;;;;5070582;28;20243;-66
2022/12/30 04:55:59;;;;;;;8.00;7.30;;;4.30;99.90;;;;;;5071533;28;20175;-66
2022/12/30 04:58:25;;;;;;;7.30;6.97;;;4.30;99.90;;;;;;5071112;28;20190;-66
2022/12/30 05:00:52;;;;;;;11.43;7.07;;;4.30;99.90;;;;;;5072006;28;20277;-66
2022/12/30 05:03:18;;;;;;;8.10;6.93;;;4.30;99.90;;;;;;5065530;28;20639;-66
2022/12/30 05:05:43;;;;;;;10.63;7.17;;;4.30;99.90;;;;;;5071682;28;20522;-66
2022/12/30 05:08:09;;;;;;;6.97;6.67;;;4.30;99.90;;;;;;5062433;28;20213;-66
2022/12/30 05:10:39;;;;;;;7.37;6.97;;;4.30;99.90;;;;;;5071099;28;20659;-66
2022/12/30 05:13:05;;;;;;;7.13;6.73;;;4.30;99.90;;;;;;5070577;28;20259;-66
2022/12/30 05:15:32;;;;;;;6.47;6.17;;;4.30;99.90;;;;;;5071602;28;20574;-66
2022/12/30 05:17:57;;;;;;;10.57;6.43;;;4.40;99.90;;;;;;5065681;28;20605;-66
2022/12/30 05:20:23;;;;;;;6.50;6.00;;;4.40;99.90;;;;;;5057364;28;20276;-65
2022/12/30 05:22:49;;;;;;;6.87;6.23;;;4.40;99.90;;;;;;5070839;28;20174;-66
2022/12/30 05:27:59;;;;;;;8.07;6.60;;;4.50;99.90;;;;;;5055806;28;20173;-66
2022/12/30 05:30:25;;;;;;;10.13;6.37;;;4.50;99.90;;;;;;5070814;28;20202;-66
2022/12/30 05:32:51;;;;;;;8.13;6.13;;;4.50;99.90;;;;;;5067868;28;20203;-66
2022/12/30 05:35:17;;;;;;;6.37;5.87;;;4.40;99.90;;;;;;5073485;28;20200;-66
2022/12/30 05:37:42;;;;;;;7.50;5.37;;;4.40;99.90;;;;;;5073401;28;20177;-66
2022/12/30 05:40:09;;;;;;;6.97;6.30;;;4.40;99.90;;;;;;5055022;28;20257;-66
2022/12/30 05:42:34;;;;;;;8.07;6.20;;;4.30;99.90;;;;;;5067022;28;20177;-66
2022/12/30 05:45:00;;;;;;;6.70;6.23;;;4.30;99.90;;;;;;5069456;28;20544;-66
2022/12/30 05:47:26;;;;;;;8.17;6.70;;;4.30;99.90;;;;;;5069247;28;20182;-66
2022/12/30 05:49:51;;;;;;;8.50;7.73;;;4.30;99.90;;;;;;5071967;28;20249;-66
2022/12/30 05:52:17;;;;;;;7.00;6.70;;;4.20;99.90;;;;;;5071980;28;20251;-66
2022/12/30 05:54:43;;;;;;;6.90;6.53;;;4.30;99.90;;;;;;5071311;28;20543;-66
2022/12/30 05:57:09;;;;;;;7.20;6.73;;;4.30;99.90;;;;;;5069327;28;20181;-66
2022/12/30 05:59:35;;;;;;;7.03;6.63;;;4.20;99.90;;;;;;5073642;28;20170;-66
2022/12/30 06:02:02;;;;;;;11.93;7.47;;;4.20;99.90;;;;;;5070464;28;20253;-66
2022/12/30 06:04:27;;;;;;;9.87;6.83;;;4.20;99.90;;;;;;5074353;28;20181;-66
2022/12/30 06:06:53;;;;;;;7.40;6.90;;;4.30;99.90;;;;;;5071802;28;20297;-66
2022/12/30 06:09:19;;;;;;;8.30;6.93;;;4.30;99.90;;;;;;5072556;28;20182;-66
2022/12/30 06:11:44;;;;;;;7.30;6.43;;;4.30;99.90;;;;;;5071105;28;20218;-66
2022/12/30 06:14:12;;;;;;;6.70;6.33;;;4.30;99.90;;;;;;5073579;28;20182;-66
2022/12/30 06:16:37;;;;;;;6.53;6.23;;;4.30;99.90;;;;;;5072384;28;20166;-66
2022/12/30 06:19:03;;;;;;;7.53;6.93;;;4.30;99.90;;;;;;5073078;28;20178;-66
2022/12/30 06:21:29;;;;;;;6.37;6.07;;;4.20;99.90;;;;;;5073382;28;20276;-66
2022/12/30 06:23:54;;;;;;;6.50;6.00;;;4.20;99.90;;;;;;5072525;28;20177;-66
2022/12/30 06:26:20;;;;;;;8.40;7.17;;;4.20;99.90;;;;;;5072674;28;20729;-66
2022/12/30 06:28:46;;;;;;;7.17;6.60;;;4.20;99.90;;;;;;5067889;28;20204;-67
2022/12/30 06:31:11;;;;;;;9.00;6.03;;;4.10;99.90;;;;;;5073344;28;20201;-66
2022/12/30 06:33:37;;;;;;;6.87;6.37;;;4.10;99.90;;;;;;5067214;28;20236;-66
2022/12/30 06:36:03;;;;;;;6.43;6.13;;;4.10;99.90;;;;;;5073823;28;20679;-66
2022/12/30 06:38:28;;;;;;;6.40;6.03;;;4.10;99.90;;;;;;5067906;28;20260;-66
2022/12/30 06:40:54;;;;;;;8.30;7.53;;;4.20;99.90;;;;;;5069584;28;20226;-66
2022/12/30 06:43:19;;;;;;;6.90;6.50;;;4.20;99.90;;;;;;5070423;28;20190;-66
2022/12/30 06:45:45;;;;;;;7.30;6.70;;;4.30;99.90;;;;;;5069941;28;20181;-66
2022/12/30 06:48:11;;;;;;;8.97;6.53;;;4.30;99.90;;;;;;5066645;28;20184;-67
2022/12/30 06:50:36;;;;;;;6.67;6.23;;;4.30;99.90;;;;;;5068949;28;20214;-65
2022/12/30 06:53:03;;;;;;;6.90;6.40;;;4.30;99.90;;;;;;5067215;28;20284;-67
2022/12/30 06:55:29;;;;;;;8.97;6.10;;;4.30;99.90;;;;;;5070765;28;20213;-65
2022/12/30 06:57:54;;;;;;;6.77;5.97;;;4.30;99.90;;;;;;5071543;28;20442;-66
2022/12/30 07:00:20;;;;;;;7.17;6.53;;;4.40;99.90;;;;;;5071287;28;20210;-65
2022/12/30 07:02:46;;;;;;;6.63;6.30;;;4.40;99.90;;;;;;5055211;28;20256;-65
2022/12/30 07:05:11;;;;;;;6.60;6.10;;;4.40;99.90;;;;;;5067649;28;20200;-65
2022/12/30 07:07:37;;;;;;;6.53;6.23;;;4.30;99.90;;;;;;5069733;28;20194;-65
2022/12/30 07:10:03;;;;;;;8.30;7.27;;;4.40;99.90;;;;;;5064939;28;20290;-65
2022/12/30 07:12:29;;;;;;;13.40;6.70;;;4.40;99.90;;;;;;5071950;28;20193;-65
2022/12/30 07:14:54;;;;;;;6.83;6.37;;;4.40;99.90;;;;;;5067323;28;20567;-65
2022/12/30 07:17:20;;;;;;;7.00;6.17;;;4.50;99.90;;;;;;5073119;28;20208;-65
2022/12/30 07:19:48;;;;;;;13.53;6.23;;;4.50;99.90;;;;;;5058761;28;20205;-65
2022/12/30 07:22:15;;;;;;;6.73;6.23;;;4.60;99.90;;;;;;5072929;28;20189;-65
2022/12/30 07:24:41;;;;;;;7.07;6.40;;;4.60;99.90;;;;;;5055467;28;20179;-64
2022/12/30 07:27:09;;;;;;;9.93;6.53;;;4.70;99.90;;;;;;5053872;28;20193;-65
2022/12/30 07:29:35;;;;;;;6.63;6.20;;;4.80;99.90;;;;;;5069299;28;20217;-65
2022/12/30 07:32:00;;;;;;;5.90;5.60;;;4.90;99.90;;;;;;5073176;28;20257;-64
2022/12/30 07:34:26;;;;;;;9.23;6.43;;;4.90;99.90;;;;;;5057674;28;20175;-65
2022/12/30 07:36:51;;;;;;;6.70;5.97;;;5.00;99.90;;;;;;5052661;28;20185;-64
2022/12/30 07:39:17;;;;;;;5.80;5.57;;;5.00;99.90;;;;;;5052773;28;20179;-65
2022/12/30 07:41:43;;;;;;;6.03;5.73;;;5.00;99.90;;;;;;5052770;28;20201;-65
2022/12/30 07:44:08;;;;;;;5.53;5.27;;;5.10;99.90;;;;;;5063650;28;20182;-65
2022/12/30 07:46:34;;;;;;;6.57;5.97;;;5.10;99.90;;;;;;5071330;28;20228;-65
2022/12/30 07:48:59;;;;;;;5.60;5.30;;;5.10;99.90;;;;;;5071673;28;20245;-65
2022/12/30 07:51:25;;;;;;;5.53;5.30;;;5.10;99.90;;;;;;5072025;28;20201;-65
2022/12/30 07:53:50;;;;;;;8.87;5.37;;;5.00;99.90;;;;;;5070836;28;20197;-65
2022/12/30 07:56:16;;;;;;;5.50;5.20;;;5.10;99.90;;;;;;5072154;28;20182;-65
2022/12/30 07:58:42;;;;;;;6.23;5.87;;;5.10;99.90;;;;;;5064466;28;20168;-65
2022/12/30 08:01:12;;;;;;;5.50;5.20;;;5.10;99.90;;;;;;5051992;28;20190;-65
2022/12/30 08:03:38;;;;;;;5.30;5.00;;;5.10;99.90;;;;;;5057902;28;20270;-65
2022/12/30 08:06:12;;;;;;;5.93;5.53;;;5.20;99.90;;;;;;5072776;28;20169;-65
2022/12/30 08:08:39;;;;;;;7.13;5.90;;;5.20;99.90;;;;;;5067244;28;20166;-65
2022/12/30 08:11:06;;;;;;;5.67;5.27;;;5.30;99.90;;;;;;5051817;28;20202;-65
2022/12/30 08:13:34;;;;;;;6.17;5.60;;;5.30;99.90;;;;;;5055221;28;20190;-65
2022/12/30 08:16:06;;;;;;;5.90;5.50;;;5.40;99.90;;;;;;5071986;28;20162;-65
2022/12/30 08:18:32;;;;;;;5.23;5.03;;;5.50;99.90;;;;;;5071490;28;20185;-66
2022/12/30 08:21:03;;;;;;;5.57;5.27;;;5.60;99.90;;;;;;5069957;28;20683;-65
2022/12/30 08:23:29;;;;;;;5.27;4.97;;;5.60;99.90;;;;;;5071824;28;20238;-65
2022/12/30 08:25:55;;;;;;;8.90;5.70;;;5.70;99.90;;;;;;5071982;28;20177;-65
2022/12/30 08:28:21;;;;;;;12.20;5.80;;;5.80;99.90;;;;;;5071587;28;20682;-65
2022/12/30 08:30:46;;;;;;;8.27;5.20;;;5.90;99.90;;;;;;5051266;28;20581;-66
2022/12/30 08:33:12;;;;;;;5.57;5.27;;;6.00;99.90;;;;;;5051516;28;20691;-65
2022/12/30 08:35:37;;;;;;;5.23;5.03;;;6.10;99.90;;;;;;5069756;28;20174;-65
2022/12/30 08:38:03;;;;;;;5.03;4.83;;;6.20;99.90;;;;;;5071497;28;20632;-65
2022/12/30 08:40:33;;;;;;;6.27;5.00;;;6.30;99.90;;;;;;5056311;28;20194;-66
2022/12/30 08:42:59;;;;;;;5.30;4.90;;;6.40;99.90;;;;;;5051409;28;20245;-66
2022/12/30 08:45:25;;;;;;;5.10;4.70;;;6.60;99.90;;;;;;5068389;28;20257;-65
2022/12/30 08:47:50;;;;;;;7.90;5.50;;;6.80;99.90;;;;;;5068486;28;20217;-65
2022/12/30 08:50:16;;;;;;;6.10;5.70;;;7.00;99.90;;;;;;5075447;28;20766;-65
2022/12/30 08:52:42;;;;;;;6.13;5.37;;;7.20;99.90;;;;;;5075735;28;20212;-65
2022/12/30 08:55:08;;;;;;;5.83;5.53;;;7.40;99.90;;;;;;5075309;28;20548;-65
2022/12/30 08:57:36;;;;;;;9.67;5.93;;;7.50;99.90;;;;;;5076345;28;20261;-65
2022/12/30 09:00:02;;;;;;;4.77;4.57;;;7.60;99.90;;;;;;5076834;28;20501;-65
2022/12/30 09:02:28;;;;;;;5.57;5.33;;;7.80;99.90;;;;;;5074138;28;20182;-65
2022/12/30 09:04:54;;;;;;;6.73;6.23;;;7.90;99.90;;;;;;5058200;28;20174;-65
2022/12/30 09:07:19;;;;;;;6.40;6.10;;;8.00;99.90;;;;;;5057769;28;20187;-65
2022/12/30 09:09:45;;;;;;;5.40;5.20;;;8.10;99.90;;;;;;5080180;28;20194;-65
2022/12/30 09:12:10;;;;;;;6.90;6.33;;;8.30;99.90;;;;;;5081833;28;20597;-65
2022/12/30 09:14:36;;;;;;;5.73;5.40;;;8.40;99.90;;;;;;5077837;28;20170;-65
2022/12/30 09:17:01;;;;;;;6.03;5.63;;;8.50;99.90;;;;;;5074200;28;20214;-65
2022/12/30 09:19:27;;;;;;;6.60;5.47;;;8.60;99.90;;;;;;5074964;28;20165;-65
2022/12/30 09:21:52;;;;;;;6.37;6.17;;;8.70;99.90;;;;;;5070930;28;20177;-67
2022/12/30 09:24:18;;;;;;;7.20;6.87;;;8.80;99.90;;;;;;5055213;28;20175;-65
2022/12/30 09:26:44;;;;;;;6.17;5.67;;;8.90;99.90;;;;;;5057504;28;20316;-65
2022/12/30 09:29:09;;;;;;;5.93;5.43;;;8.90;99.90;;;;;;5075143;28;20252;-66
2022/12/30 09:31:35;;;;;;;6.43;5.83;;;9.00;99.90;;;;;;5073884;28;20530;-65
2022/12/30 09:34:00;;;;;;;6.43;5.90;;;9.00;99.90;;;;;;5061932;28;20174;-65
2022/12/30 09:36:26;;;;;;;5.67;5.33;;;9.00;99.90;;;;;;5075036;28;20173;-65
2022/12/30 09:38:52;;;;;;;5.60;5.30;;;9.10;99.90;;;;;;5074285;28;20239;-65
2022/12/30 09:44:54;;;;;;;9.13;5.60;;;9.00;99.90;;;;;;5074922;28;20205;-66
2022/12/30 09:47:31;;;;;;;5.47;5.17;;;9.00;99.90;;;;;;5060759;28;20178;-65
2022/12/30 09:50:23;;;;;;;7.90;7.17;;;9.10;99.90;;;;;;5054589;28;20245;-66
2022/12/30 09:52:58;;;;;;;8.07;5.63;;;9.10;99.90;;;;;;5071900;28;20206;-65
2022/12/30 09:55:28;;;;;;;5.60;5.30;;;9.20;99.90;;;;;;5074718;28;20249;-66
2022/12/30 09:58:00;;;;;;;11.57;6.70;;;9.20;99.90;;;;;;5056980;28;20670;-65
2022/12/30 10:00:32;;;;;;;6.50;5.50;;;9.20;99.90;;;;;;5054379;28;20183;-66
2022/12/30 10:03:05;;;;;;;5.60;4.40;;;9.30;99.90;;;;;;5072447;28;20178;-65
2022/12/30 10:06:12;;;;;;;5.13;4.70;;;9.40;99.90;;;;;;5077038;28;20182;-65
2022/12/30 10:09:15;;;;;;;6.53;6.23;;;9.50;99.90;;;;;;5056451;28;20194;-65
2022/12/30 10:11:50;;;;;;;5.10;4.80;;;9.60;99.90;;;;;;5055306;28;20190;-66
2022/12/30 10:14:33;;;;;;;6.47;6.00;;;9.60;99.90;;;;;;5054255;28;20170;-66
2022/12/30 10:17:36;;;;;;;6.90;5.33;;;9.60;99.90;;;;;;5061680;28;20174;-65
2022/12/30 10:20:20;;;;;;;6.13;5.70;;;9.60;99.90;;;;;;5073171;28;20650;-65
2022/12/30 10:22:57;;;;;;;6.53;4.70;;;9.60;99.90;;;;;;5073742;28;20185;-66
2022/12/30 10:25:41;;;;;;;4.90;4.27;;;9.60;99.90;;;;;;5074121;28;20166;-65
2022/12/30 10:28:10;;;;;;;7.93;7.37;;;9.60;99.90;;;;;;5072381;28;20182;-65
2022/12/30 10:30:45;;;;;;;5.00;4.70;;;9.60;99.90;;;;;;5073695;28;20189;-65
2022/12/30 10:33:20;;;;;;;6.30;5.73;;;9.60;99.90;;;;;;5054424;28;20198;-66
2022/12/30 10:35:50;;;;;;;6.53;5.90;;;9.60;99.90;;;;;;5054048;28;20273;-64
2022/12/30 10:38:18;;;;;;;6.93;6.43;;;9.60;99.90;;;;;;5073006;28;20686;-65
2022/12/30 10:41:05;;;;;;;7.30;6.90;;;9.50;99.90;;;;;;5073467;28;20599;-65
2022/12/30 10:43:49;;;;;;;6.90;6.30;;;9.40;99.90;;;;;;5058998;28;20175;-65
2022/12/30 10:46:39;;;;;;;5.63;5.23;;;9.30;99.90;;;;;;5072612;28;20178;-65
2022/12/30 10:49:26;;;;;;;4.93;4.73;;;9.40;99.90;;;;;;5072778;28;20235;-64
2022/12/30 10:51:54;;;;;;;7.73;7.23;;;9.40;99.90;;;;;;5073556;28;20193;-65
2022/12/30 10:54:19;;;;;;;5.47;5.20;;;9.40;99.90;;;;;;5072063;28;20174;-66
2022/12/30 10:56:47;;;;;;;5.57;5.07;;;9.40;99.90;;;;;;5073694;28;20177;-66
2022/12/30 10:59:16;;;;;;;6.83;5.03;;;9.40;99.90;;;;;;5067798;28;20174;-65
2022/12/30 11:01:45;;;;;;;5.50;5.20;;;9.40;99.90;;;;;;5052131;28;20195;-65
2022/12/30 11:04:35;;;;;;;6.43;6.07;;;9.40;99.90;;;;;;5055951;28;20175;-68
2022/12/30 11:07:02;;;;;;;6.13;4.67;;;9.40;99.90;;;;;;5073571;28;20162;-66
2022/12/30 11:09:28;;;;;;;5.37;4.93;;;9.40;99.90;;;;;;5068089;28;20174;-66
2022/12/30 11:14:44;;;;;;;5.53;5.03;;;9.30;99.90;;;;;;5059470;28;20235;-65
2022/12/30 11:17:28;;;;;;;6.03;5.67;;;9.30;99.90;;;;;;5073002;28;20177;-66
2022/12/30 11:19:58;;;;;;;9.63;5.33;;;9.20;99.90;;;;;;5065566;28;20664;-65
2022/12/30 11:22:24;;;;;;;5.97;5.50;;;9.20;99.90;;;;;;5057767;28;20177;-66
2022/12/30 11:25:04;;;;;;;6.07;5.67;;;9.20;99.90;;;;;;5071232;28;20186;-66
2022/12/30 11:27:38;;;;;;;6.13;5.60;;;9.20;99.90;;;;;;5068345;28;20185;-65
2022/12/30 11:30:05;;;;;;;6.43;5.00;;;9.20;99.90;;;;;;5055930;28;20647;-65
2022/12/30 11:32:33;;;;;;;5.77;5.47;;;9.20;99.90;;;;;;5066667;28;20565;-66
2022/12/30 11:34:58;;;;;;;8.57;5.53;;;9.20;99.90;;;;;;5052874;28;20213;-65
2022/12/30 11:37:36;;;;;;;6.27;5.63;;;9.30;99.90;;;;;;5056058;28;20639;-64
2022/12/30 11:40:31;;;;;;;5.50;5.00;;;9.30;99.90;;;;;;5072209;28;20486;-65
2022/12/30 11:43:15;;;;;;;8.57;4.87;;;9.30;99.90;;;;;;5060840;28;20175;-65
2022/12/30 11:46:05;;;;;;;5.07;4.80;;;9.30;99.90;;;;;;5052833;28;20578;-64
2022/12/30 11:48:39;;;;;;;5.50;5.17;;;9.30;99.90;;;;;;5068355;28;20188;-65
2022/12/30 11:51:25;;;;;;;6.60;6.20;;;9.30;99.90;;;;;;5060558;28;20209;-65
2022/12/30 11:54:14;;;;;;;6.83;5.93;;;9.30;99.90;;;;;;5052486;28;20209;-65
2022/12/30 11:56:59;;;;;;;7.07;6.47;;;9.30;99.90;;;;;;5063658;28;20186;-65
2022/12/30 11:59:38;;;;;;;6.30;6.00;;;9.30;99.90;;;;;;5071909;28;20174;-65
2022/12/30 12:02:16;;;;;;;7.30;6.47;;;9.30;99.90;;;;;;5052131;28;20181;-65
2022/12/30 12:04:42;;;;;;;6.77;6.40;;;9.30;99.90;;;;;;5052640;28;20167;-65
2022/12/30 12:07:16;;;;;;;6.17;5.77;;;9.30;99.90;;;;;;5053086;28;20509;-65
2022/12/30 12:09:52;;;;;;;7.63;6.90;;;9.30;99.90;;;;;;5052120;28;20198;-65
2022/12/30 12:12:22;;;;;;;6.70;6.37;;;9.30;99.90;;;;;;5071050;28;20193;-65
2022/12/30 12:15:09;;;;;;;10.33;9.83;;;9.30;99.90;;;;;;5072491;28;20170;-65
2022/12/30 12:17:37;;;;;;;6.97;6.27;;;9.30;99.90;;;;;;5053379;28;20205;-65
2022/12/30 12:20:14;;;;;;;6.33;5.83;;;9.30;99.90;;;;;;5051788;28;20700;-65
2022/12/30 12:22:59;;;;;;;7.20;6.13;;;9.40;99.90;;;;;;5052262;28;20225;-65
2022/12/30 12:25:30;;;;;;;8.17;6.37;;;9.40;99.90;;;;;;5053326;28;20794;-65
2022/12/30 12:27:55;;;;;;;10.63;5.60;;;9.40;99.90;;;;;;5052047;28;20586;-65
2022/12/30 12:30:21;;;;;;;13.13;5.60;;;9.40;99.90;;;;;;5051963;28;20237;-65
2022/12/30 12:33:10;;;;;;;7.10;5.47;;;9.40;99.90;;;;;;5071224;28;20289;-65
2022/12/30 12:36:33;;;;;;;7.57;6.17;;;9.50;99.90;;;;;;5058624;28;20179;-65
2022/12/30 12:39:06;;;;;;;6.10;5.60;;;9.50;99.90;;;;;;5049650;28;20178;-65
2022/12/30 12:41:58;;;;;;;5.70;5.30;;;9.50;99.90;;;;;;5057505;28;20202;-65
2022/12/30 12:44:41;;;;;;;5.40;5.10;;;9.50;99.90;;;;;;5051327;28;20193;-64
2022/12/30 12:47:36;;;;;;;5.67;5.27;;;9.40;99.90;;;;;;5052320;28;20608;-64
2022/12/30 12:50:20;;;;;;;5.10;4.80;;;9.50;99.90;;;;;;5051416;28;20182;-65
2022/12/30 12:53:06;;;;;;;5.47;5.00;;;9.40;99.90;;;;;;5051781;28;20208;-66
2022/12/30 12:56:02;;;;;;;5.63;5.23;;;9.50;99.90;;;;;;5052783;28;20198;-66
2022/12/30 12:58:46;;;;;;;5.20;4.90;;;9.40;99.90;;;;;;5075687;28;20682;-65
2022/12/30 13:01:35;;;;;;;4.90;4.70;;;9.40;99.90;;;;;;5071123;28;20570;-65
2022/12/30 13:04:10;;;;;;;5.10;4.90;;;9.40;99.90;;;;;;5072176;28;20182;-66
2022/12/30 13:06:40;;;;;;;5.07;4.77;;;9.40;99.90;;;;;;5072400;28;20182;-66
2022/12/30 13:09:27;;;;;;;5.47;4.90;;;9.40;99.90;;;;;;5071530;28;20628;-66
2022/12/30 13:12:03;;;;;;;6.03;5.57;;;9.40;99.90;;;;;;5071363;28;20291;-66
2022/12/30 13:14:44;;;;;;;6.23;5.73;;;9.40;99.90;;;;;;5071437;28;20662;-66
2022/12/30 13:17:27;;;;;;;4.80;4.50;;;9.40;99.90;;;;;;5071119;28;20178;-65
2022/12/30 13:19:58;;;;;;;5.77;5.47;;;9.30;99.90;;;;;;5071118;28;20189;-66
2022/12/30 13:22:30;;;;;;;6.07;5.73;;;9.10;99.90;;;;;;5066532;28;20197;-64
2022/12/30 13:24:58;;;;;;;6.37;6.07;;;9.00;99.90;;;;;;5057229;22;20712;-63
2022/12/30 13:27:31;;;;;;;5.90;5.60;;;8.90;99.90;;;;;;5014342;28;20619;-63
2022/12/30 13:29:59;;;;;;;6.00;5.60;;;8.80;99.90;;;;;;5030919;28;20164;-63
2022/12/30 13:32:50;;;;;;;6.77;6.17;;;8.70;99.90;;;;;;5031417;28;20574;-63
2022/12/30 13:35:54;;;;;;;5.40;5.17;;;8.70;99.90;;;;;;4991927;28;20173;-64
2022/12/30 13:38:40;;;;;;;6.13;5.63;;;8.60;99.90;;;;;;4986483;28;20558;-64
2022/12/30 13:41:09;;;;;;;5.33;5.13;;;8.50;99.90;;;;;;5011228;28;20638;-64
2022/12/30 13:43:50;;;;;;;6.50;5.83;;;8.40;99.90;;;;;;5011397;28;20334;-63
2022/12/30 13:46:22;;;;;;;5.80;5.50;;;8.40;99.90;;;;;;5011820;28;20172;-63
2022/12/30 13:49:04;;;;;;;6.50;6.10;;;8.30;99.90;;;;;;5011165;28;20289;-63
2022/12/30 13:51:31;;;;;;;6.13;5.53;;;8.30;99.90;;;;;;5011452;28;20172;-62
2022/12/30 13:54:07;;;;;;;6.47;6.03;;;8.30;99.90;;;;;;5011175;28;20210;-63
2022/12/30 13:56:42;;;;;;;7.27;5.40;;;8.30;99.90;;;;;;5015323;28;20172;-63
2022/12/30 13:59:34;;;;;;;7.13;6.77;;;8.20;99.90;;;;;;5012232;28;20180;-63
2022/12/30 14:02:17;;;;;;;6.53;6.13;;;8.20;99.90;;;;;;5010785;28;20608;-62
2022/12/30 14:04:49;;;;;;;7.30;6.90;;;8.20;99.90;;;;;;5014638;28;20234;-62
2022/12/30 14:07:41;;;;;;;6.33;5.73;;;8.20;99.90;;;;;;5014550;28;20171;-62
2022/12/30 14:10:18;;;;;;;10.03;5.93;;;8.20;99.90;;;;;;5014160;28;20697;-63
2022/12/30 14:13:14;;;;;;;7.70;5.60;;;8.20;99.90;;;;;;5014884;28;20278;-63